createdAt,value
2023-02-28T00:01:32.022Z,4.35
2023-02-28T00:03:59.961Z,4.43
2023-02-28T00:06:27.783Z,4.19
2023-02-28T00:08:55.724Z,4.32
2023-02-28T00:11:30.688Z,4.37
2023-02-28T00:13:59.266Z,4.49
2023-02-28T00:16:27.478Z,4.35
2023-02-28T00:18:55.256Z,4.30
2023-02-28T00:21:23.103Z,4.13
2023-02-28T00:23:50.930Z,4.21
2023-02-28T00:26:21.541Z,4.29
2023-02-28T00:28:50.798Z,4.25
2023-02-28T00:31:18.728Z,4.06
2023-02-28T00:33:46.637Z,4.36
2023-02-28T00:36:17.110Z,4.36
2023-02-28T00:38:45.635Z,4.17
2023-02-28T00:41:14.070Z,4.01
2023-02-28T00:43:43.848Z,4.28
2023-02-28T00:46:12.652Z,4.05
2023-02-28T00:48:40.632Z,3.94
2023-02-28T00:51:08.423Z,3.93
2023-02-28T00:53:39.021Z,3.92
2023-02-28T00:56:07.003Z,3.72
2023-02-28T00:58:35.577Z,3.82
2023-02-28T01:01:03.495Z,3.80
2023-02-28T01:03:32.469Z,3.74
2023-02-28T01:06:00.617Z,3.70
2023-02-28T01:08:28.759Z,3.80
2023-02-28T01:10:58.620Z,3.88
2023-02-28T01:13:26.776Z,3.79
2023-02-28T01:15:56.737Z,3.96
2023-02-28T01:18:25.912Z,3.68
2023-02-28T01:20:54.073Z,3.70
2023-02-28T01:23:22.928Z,3.48
2023-02-28T01:25:54.297Z,3.45
2023-02-28T01:28:22.277Z,3.52
2023-02-28T01:30:51.748Z,3.50
2023-02-28T01:33:19.951Z,3.52
2023-02-28T01:35:47.811Z,3.27
2023-02-28T01:38:22.681Z,3.57
2023-02-28T01:40:51.218Z,3.31
2023-02-28T01:43:27.039Z,3.31
2023-02-28T01:45:57.733Z,3.25
2023-02-28T01:48:37.016Z,3.30
2023-02-28T01:51:07.967Z,3.33
2023-02-28T01:53:44.073Z,3.38
2023-02-28T01:56:12.460Z,3.47
2023-02-28T01:58:40.576Z,3.33
2023-02-28T02:01:08.370Z,3.45
2023-02-28T02:03:36.647Z,3.45
2023-02-28T02:06:04.763Z,3.35
2023-02-28T02:08:34.107Z,3.42
2023-02-28T02:11:02.607Z,3.18
2023-02-28T02:13:54.476Z,3.34
2023-02-28T02:16:47.195Z,3.25
2023-02-28T02:19:56.928Z,3.30
2023-02-28T02:22:51.972Z,3.40
2023-02-28T02:25:52.361Z,3.30
2023-02-28T02:28:41.618Z,3.03
2023-02-28T02:31:30.389Z,3.39
2023-02-28T02:34:11.950Z,3.45
2023-02-28T02:36:50.397Z,3.52
2023-02-28T02:39:44.035Z,3.30
2023-02-28T02:42:41.060Z,3.31
2023-02-28T02:45:20.144Z,3.19
2023-02-28T02:47:49.824Z,3.04
2023-02-28T02:50:24.156Z,3.12
2023-02-28T02:52:56.971Z,3.30
2023-02-28T02:55:25.168Z,3.27
2023-02-28T02:57:58.613Z,3.26
2023-02-28T03:00:29.655Z,3.26
2023-02-28T03:02:57.416Z,3.17
2023-02-28T03:05:37.271Z,2.99
2023-02-28T03:08:06.688Z,2.74
2023-02-28T03:10:38.933Z,2.90
2023-02-28T03:13:44.531Z,2.96
2023-02-28T03:16:15.647Z,3.08
2023-02-28T03:19:06.305Z,2.87
2023-02-28T03:22:04.115Z,2.91
2023-02-28T03:24:49.523Z,2.61
2023-02-28T03:27:29.165Z,2.87
2023-02-28T03:30:05.846Z,2.97
2023-02-28T03:32:38.132Z,2.84
2023-02-28T03:35:31.060Z,2.89
2023-02-28T03:38:04.788Z,2.78
2023-02-28T03:40:34.096Z,2.79
2023-02-28T03:43:04.863Z,3.04
2023-02-28T03:45:34.659Z,2.93
2023-02-28T03:48:06.821Z,2.71
2023-02-28T03:50:39.564Z,2.70
2023-02-28T03:53:21.617Z,2.84
2023-02-28T03:56:09.623Z,2.97
2023-02-28T03:58:58.498Z,2.91
2023-02-28T04:01:28.935Z,2.76
2023-02-28T04:03:57.025Z,3.01
2023-02-28T04:06:25.097Z,2.96
2023-02-28T04:08:52.943Z,2.83
2023-02-28T04:11:38.902Z,3.15
2023-02-28T04:14:07.295Z,3.17
2023-02-28T04:16:36.210Z,3.06
2023-02-28T04:19:06.270Z,3.01
2023-02-28T04:21:36.663Z,3.04
2023-02-28T04:24:07.046Z,3.23
2023-02-28T04:26:36.734Z,3.23
2023-02-28T04:29:05.855Z,3.23
2023-02-28T04:31:34.797Z,3.14
2023-02-28T04:34:02.978Z,3.15
2023-02-28T04:36:31.621Z,3.09
2023-02-28T04:39:01.132Z,3.30
2023-02-28T04:41:32.623Z,3.39
2023-02-28T04:44:00.882Z,3.18
2023-02-28T04:46:29.236Z,3.02
2023-02-28T04:48:56.923Z,3.36
2023-02-28T04:51:25.497Z,3.17
2023-02-28T04:53:55.908Z,3.10
2023-02-28T04:56:23.964Z,3.06
2023-02-28T04:58:54.211Z,3.06
2023-02-28T05:01:24.725Z,3.26
2023-02-28T05:03:53.476Z,3.37
2023-02-28T05:06:27.190Z,3.42
2023-02-28T05:08:55.375Z,3.33
2023-02-28T05:11:28.663Z,3.05
2023-02-28T05:13:56.635Z,3.23
2023-02-28T05:16:24.381Z,3.37
2023-02-28T05:18:55.558Z,3.30
2023-02-28T05:21:41.756Z,3.19
2023-02-28T05:24:13.852Z,3.33
2023-02-28T05:26:42.818Z,3.26
2023-02-28T05:29:10.811Z,3.36
2023-02-28T05:31:39.790Z,3.44
2023-02-28T05:34:07.768Z,3.58
2023-02-28T05:36:38.131Z,3.47
2023-02-28T05:39:13.827Z,3.51
2023-02-28T05:41:44.807Z,3.31
2023-02-28T05:44:13.580Z,3.48
2023-02-28T05:46:45.464Z,3.18
2023-02-28T05:49:14.089Z,3.50
2023-02-28T05:51:42.192Z,3.25
2023-02-28T05:54:13.562Z,3.18
2023-02-28T05:56:45.399Z,3.18
2023-02-28T05:59:14.425Z,3.52
2023-02-28T06:01:46.388Z,3.53
2023-02-28T06:04:30.390Z,2.97
2023-02-28T06:06:58.943Z,3.13
2023-02-28T06:09:32.655Z,3.35
2023-02-28T06:12:01.707Z,3.20
2023-02-28T06:14:29.901Z,3.30
2023-02-28T06:17:02.183Z,3.08
2023-02-28T06:19:31.407Z,2.88
2023-02-28T06:22:00.855Z,3.18
2023-02-28T06:24:29.574Z,3.18
2023-02-28T06:27:00.014Z,3.29
2023-02-28T06:29:28.106Z,3.32
2023-02-28T06:31:56.650Z,3.58
2023-02-28T06:34:25.130Z,3.31
2023-02-28T06:36:53.413Z,3.30
2023-02-28T06:39:26.384Z,3.13
2023-02-28T06:41:56.194Z,3.06
2023-02-28T06:44:24.721Z,3.43
2023-02-28T06:46:52.920Z,3.29
2023-02-28T06:49:25.725Z,3.21
2023-02-28T06:52:01.829Z,3.36
2023-02-28T06:54:30.206Z,3.14
2023-02-28T06:56:59.301Z,3.17
2023-02-28T06:59:27.445Z,3.33
2023-02-28T07:01:56.498Z,3.03
2023-02-28T07:04:25.328Z,3.19
2023-02-28T07:06:58.428Z,2.80
2023-02-28T07:09:31.271Z,2.74
2023-02-28T07:12:03.108Z,3.08
2023-02-28T07:14:31.742Z,3.10
2023-02-28T07:16:59.966Z,3.13
2023-02-28T07:19:42.459Z,2.90
2023-02-28T07:22:10.881Z,3.17
2023-02-28T07:24:42.411Z,2.77
2023-02-28T07:27:28.118Z,2.98
2023-02-28T07:30:02.949Z,2.77
2023-02-28T07:32:32.305Z,2.68
2023-02-28T07:35:00.962Z,2.88
2023-02-28T07:37:32.824Z,3.17
2023-02-28T07:40:03.365Z,3.16
2023-02-28T07:42:33.503Z,3.22
2023-02-28T07:45:05.364Z,3.04
2023-02-28T07:47:35.903Z,3.37
2023-02-28T07:50:41.358Z,3.02
2023-02-28T07:53:09.575Z,2.94
2023-02-28T07:55:41.665Z,3.22
2023-02-28T07:58:14.000Z,3.38
2023-02-28T08:00:42.386Z,3.32
2023-02-28T08:03:13.278Z,3.39
2023-02-28T08:05:41.590Z,3.30
2023-02-28T08:08:12.409Z,3.37
2023-02-28T08:10:57.384Z,3.50
2023-02-28T08:13:25.896Z,3.79
2023-02-28T08:15:56.102Z,3.61
2023-02-28T08:18:24.289Z,3.44
2023-02-28T08:20:55.630Z,3.47
2023-02-28T08:23:24.699Z,3.43
2023-02-28T08:25:57.132Z,3.50
2023-02-28T08:28:27.799Z,3.05
2023-02-28T08:30:56.602Z,3.43
2023-02-28T08:33:28.248Z,2.96
2023-02-28T08:35:57.034Z,3.28
2023-02-28T08:38:25.344Z,3.51
2023-02-28T08:41:00.882Z,3.68
2023-02-28T08:43:30.383Z,3.89
2023-02-28T08:46:01.834Z,3.74
2023-02-28T08:48:30.863Z,3.75
2023-02-28T08:51:07.328Z,3.69
2023-02-28T08:53:38.423Z,4.02
2023-02-28T08:56:12.870Z,4.08
2023-02-28T08:58:45.127Z,4.08
2023-02-28T09:01:31.972Z,4.04
2023-02-28T09:04:19.817Z,3.93
2023-02-28T09:06:50.809Z,4.08
2023-02-28T09:09:23.545Z,3.76
2023-02-28T09:12:06.453Z,3.70
2023-02-28T09:14:38.831Z,4.01
2023-02-28T09:17:12.749Z,4.31
2023-02-28T09:19:47.220Z,4.43
2023-02-28T09:22:27.551Z,3.72
2023-02-28T09:24:58.662Z,4.04
2023-02-28T09:27:30.402Z,4.02
2023-02-28T09:30:05.713Z,3.84
2023-02-28T09:32:55.773Z,4.12
2023-02-28T09:35:35.608Z,4.36
2023-02-28T09:38:04.907Z,4.49
2023-02-28T09:40:48.897Z,4.52
2023-02-28T09:43:42.439Z,4.39
2023-02-28T09:46:48.831Z,4.35
2023-02-28T09:49:23.647Z,4.18
2023-02-28T09:52:19.100Z,3.85
2023-02-28T09:58:04.872Z,3.83
2023-02-28T10:00:41.702Z,3.63
2023-02-28T10:03:26.496Z,3.91
2023-02-28T10:09:12.716Z,3.88
2023-02-28T10:11:59.082Z,3.77
2023-02-28T10:14:35.436Z,3.39
2023-02-28T10:17:49.342Z,3.71
2023-02-28T10:20:34.204Z,3.82
2023-02-28T10:23:17.468Z,3.70
2023-02-28T10:26:00.508Z,4.03
2023-02-28T10:28:37.025Z,3.91
2023-02-28T10:31:18.728Z,3.56
2023-02-28T10:33:53.423Z,3.68
2023-02-28T10:36:25.408Z,3.54
2023-02-28T10:38:55.408Z,3.78
2023-02-28T10:41:41.479Z,4.19
2023-02-28T10:44:26.594Z,4.04
2023-02-28T10:47:05.883Z,3.99
2023-02-28T10:49:35.937Z,3.66
2023-02-28T10:52:09.087Z,3.69
2023-02-28T10:54:44.388Z,3.77
2023-02-28T10:57:25.698Z,3.89
2023-02-28T10:59:56.926Z,3.24
2023-02-28T11:02:42.071Z,3.61
2023-02-28T11:09:09.432Z,3.38
2023-02-28T11:11:46.711Z,3.70
2023-02-28T11:14:44.367Z,3.64
2023-02-28T11:17:26.743Z,3.47
2023-02-28T11:19:58.178Z,3.77
2023-02-28T11:22:30.032Z,3.55
2023-02-28T11:25:04.911Z,3.42
2023-02-28T11:27:35.064Z,3.36
2023-02-28T11:30:09.941Z,3.39
2023-02-28T11:32:42.043Z,3.51
2023-02-28T11:35:11.087Z,3.66
2023-02-28T11:37:48.041Z,3.50
2023-02-28T11:40:20.802Z,3.62
2023-02-28T11:43:15.926Z,3.39
2023-02-28T11:46:13.314Z,3.07
2023-02-28T11:49:10.245Z,3.59
2023-02-28T11:51:59.501Z,3.43
2023-02-28T11:55:00.526Z,3.92
2023-02-28T11:57:33.054Z,4.03
2023-02-28T12:00:31.385Z,4.09
2023-02-28T12:03:24.477Z,3.73
2023-02-28T12:06:14.295Z,3.84
2023-02-28T12:09:15.126Z,3.90
2023-02-28T12:11:57.194Z,4.21
2023-02-28T12:14:40.300Z,3.78
2023-02-28T12:17:24.745Z,3.84
2023-02-28T12:19:56.754Z,3.90
2023-02-28T12:22:43.866Z,4.02
2023-02-28T12:25:57.514Z,4.00
2023-02-28T12:28:32.602Z,3.57
2023-02-28T12:31:13.831Z,3.54
2023-02-28T12:33:49.882Z,3.80
2023-02-28T12:36:22.655Z,3.55
2023-02-28T12:39:17.051Z,3.89
2023-02-28T12:42:04.091Z,4.07
2023-02-28T12:48:05.140Z,3.64
2023-02-28T12:57:34.922Z,4.04
2023-02-28T13:00:34.935Z,4.24
2023-02-28T13:04:06.375Z,4.63
2023-02-28T13:06:57.996Z,5.08
2023-02-28T13:09:36.088Z,5.48
2023-02-28T13:12:16.699Z,4.73
2023-02-28T13:14:46.191Z,4.67
2023-02-28T13:17:22.443Z,4.73
2023-02-28T13:19:55.365Z,4.43
2023-02-28T13:22:26.498Z,4.14
2023-02-28T13:24:55.391Z,4.50
2023-02-28T13:27:34.112Z,4.82
2023-02-28T13:30:04.890Z,5.43
2023-02-28T13:35:38.157Z,5.25
2023-02-28T13:38:17.098Z,5.41
2023-02-28T13:40:46.690Z,6.13
2023-02-28T13:43:25.296Z,5.75
2023-02-28T13:46:13.935Z,5.21
2023-02-28T13:48:46.043Z,5.02
2023-02-28T13:51:42.883Z,5.44
2023-02-28T13:54:40.456Z,5.31
2023-02-28T13:57:29.674Z,5.50
2023-02-28T14:00:24.097Z,5.90
2023-02-28T14:03:55.209Z,5.91
2023-02-28T14:06:50.713Z,5.22
2023-02-28T14:09:42.798Z,4.69
2023-02-28T14:17:02.181Z,4.48
2023-02-28T14:19:53.247Z,4.93
2023-02-28T14:22:31.823Z,4.83
2023-02-28T14:25:29.456Z,4.15
2023-02-28T14:28:35.279Z,3.70
2023-02-28T14:31:26.244Z,4.11
2023-02-28T14:34:20.067Z,3.98
2023-02-28T14:36:48.943Z,3.66
2023-02-28T14:39:24.321Z,3.45
2023-02-28T14:41:55.735Z,3.28
2023-02-28T14:44:26.774Z,3.51
2023-02-28T14:47:06.817Z,3.15
2023-02-28T14:49:52.528Z,2.95
2023-02-28T14:52:22.698Z,3.04
2023-02-28T14:55:02.256Z,3.08
2023-02-28T14:57:37.671Z,3.09
2023-02-28T15:00:12.851Z,2.78
2023-02-28T15:02:41.510Z,2.82
2023-02-28T15:05:28.071Z,2.80
2023-02-28T15:08:30.754Z,2.83
2023-02-28T15:11:02.324Z,2.44
2023-02-28T15:13:47.452Z,2.45
2023-02-28T15:16:26.595Z,2.50
2023-02-28T15:18:58.505Z,2.73
2023-02-28T15:21:34.105Z,2.33
2023-02-28T15:24:27.724Z,2.39
2023-02-28T15:26:57.747Z,2.42
2023-02-28T15:29:29.653Z,2.29
2023-02-28T15:32:11.103Z,2.18
2023-02-28T15:34:44.727Z,2.20
2023-02-28T15:37:34.622Z,2.44
2023-02-28T15:40:15.277Z,2.22
2023-02-28T15:42:45.112Z,1.85
2023-02-28T15:45:49.211Z,1.81
2023-02-28T15:48:32.047Z,1.84
2023-02-28T15:51:11.212Z,1.67
2023-02-28T15:53:58.218Z,1.96
2023-02-28T15:56:31.138Z,1.73
2023-02-28T15:59:00.296Z,1.79
2023-02-28T16:01:31.440Z,1.87
2023-02-28T16:04:01.853Z,1.75
2023-02-28T16:06:38.272Z,1.89
2023-02-28T16:09:11.116Z,1.94
2023-02-28T16:11:51.982Z,1.87
2023-02-28T16:14:28.208Z,1.68
2023-02-28T16:17:10.042Z,1.68
2023-02-28T16:19:38.006Z,1.80
2023-02-28T16:22:07.228Z,1.75
2023-02-28T16:24:35.454Z,1.41
2023-02-28T16:27:06.747Z,1.72
2023-02-28T16:29:36.356Z,1.58
2023-02-28T16:32:07.542Z,1.53
2023-02-28T16:34:37.624Z,1.28
2023-02-28T16:37:10.980Z,1.58
2023-02-28T16:39:41.038Z,1.43
2023-02-28T16:42:22.982Z,1.39
2023-02-28T16:44:50.864Z,1.39
2023-02-28T16:47:18.778Z,1.64
2023-02-28T16:49:49.492Z,1.34
2023-02-28T16:52:17.640Z,1.25
2023-02-28T16:54:45.676Z,1.44
2023-02-28T16:57:23.299Z,1.42
2023-02-28T16:59:54.006Z,1.50
2023-02-28T17:02:22.315Z,1.31
2023-02-28T17:04:50.353Z,1.60
2023-02-28T17:07:18.465Z,1.45
2023-02-28T17:09:46.840Z,1.41
2023-02-28T17:12:15.642Z,1.22
2023-02-28T17:14:45.145Z,1.40
2023-02-28T17:17:21.391Z,1.48
2023-02-28T17:19:54.421Z,1.30
2023-02-28T17:22:22.752Z,1.45
2023-02-28T17:24:51.933Z,1.22
2023-02-28T17:27:20.503Z,1.39
2023-02-28T17:29:49.279Z,1.10
2023-02-28T17:32:18.664Z,1.20
2023-02-28T17:34:47.262Z,1.45
2023-02-28T17:37:17.563Z,1.17
2023-02-28T17:39:45.495Z,1.20
2023-02-28T17:42:17.397Z,1.31
2023-02-28T17:44:46.313Z,1.15
2023-02-28T17:47:14.273Z,1.05
2023-02-28T17:49:42.867Z,1.15
2023-02-28T17:52:10.708Z,1.04
2023-02-28T17:54:39.869Z,1.03
2023-02-28T17:57:11.464Z,0.96
2023-02-28T17:59:39.711Z,1.15
2023-02-28T18:02:08.029Z,0.99
2023-02-28T18:04:36.020Z,0.93
2023-02-28T18:07:04.013Z,0.92
2023-02-28T18:09:31.733Z,1.08
2023-02-28T18:11:59.426Z,1.20
2023-02-28T18:14:27.584Z,1.08
2023-02-28T18:16:57.670Z,1.12
2023-02-28T18:19:26.200Z,1.05
2023-02-28T18:21:55.053Z,1.18
2023-02-28T18:24:23.298Z,1.40
2023-02-28T18:26:51.717Z,1.09
2023-02-28T18:29:27.557Z,1.09
2023-02-28T18:31:56.110Z,1.09
2023-02-28T18:34:24.382Z,1.02
2023-02-28T18:36:52.588Z,1.04
2023-02-28T18:39:20.610Z,1.06
2023-02-28T18:41:48.915Z,1.04
2023-02-28T18:44:20.156Z,0.89
2023-02-28T18:46:51.097Z,1.06
2023-02-28T18:49:19.214Z,1.12
2023-02-28T18:51:47.317Z,0.98
2023-02-28T18:54:16.831Z,1.08
2023-02-28T18:56:45.148Z,0.99
2023-02-28T18:59:13.123Z,1.01
2023-02-28T19:01:41.211Z,1.07
2023-02-28T19:04:12.386Z,1.10
2023-02-28T19:06:40.281Z,0.78
2023-02-28T19:09:09.018Z,0.89
2023-02-28T19:11:37.303Z,0.92
2023-02-28T19:14:09.753Z,0.66
2023-02-28T19:16:37.882Z,1.13
2023-02-28T19:19:05.912Z,0.89
2023-02-28T19:21:36.840Z,0.74
2023-02-28T19:24:04.943Z,0.81
2023-02-28T19:26:37.884Z,0.80
2023-02-28T19:29:05.632Z,0.57
2023-02-28T19:31:33.851Z,0.57
2023-02-28T19:34:01.968Z,0.50
2023-02-28T19:36:29.894Z,0.51
2023-02-28T19:38:57.896Z,0.74
2023-02-28T19:41:25.619Z,0.81
2023-02-28T19:43:54.335Z,0.85
2023-02-28T19:46:21.922Z,0.79
2023-02-28T19:48:49.913Z,0.82
2023-02-28T19:53:46.310Z,0.70
2023-02-28T19:56:14.513Z,0.78
2023-02-28T19:58:42.132Z,0.60
2023-02-28T20:01:14.073Z,0.72
2023-02-28T20:03:42.176Z,0.61
2023-02-28T20:06:11.290Z,0.80
2023-02-28T20:08:39.546Z,0.75
2023-02-28T20:11:12.552Z,0.86
2023-02-28T20:13:40.583Z,0.74
2023-02-28T20:16:09.830Z,0.85
2023-02-28T20:18:38.368Z,0.83
2023-02-28T20:21:08.736Z,0.75
2023-02-28T20:23:38.826Z,0.64
2023-02-28T20:26:06.582Z,0.75
2023-02-28T20:28:34.357Z,0.48
2023-02-28T20:31:02.056Z,0.55
2023-02-28T20:33:30.072Z,0.86
2023-02-28T20:35:59.767Z,0.79
2023-02-28T20:38:28.251Z,0.71
2023-02-28T20:40:56.697Z,0.98
2023-02-28T20:43:25.152Z,0.60
2023-02-28T20:45:58.479Z,0.88
2023-02-28T20:48:26.982Z,0.80
2023-02-28T20:50:56.157Z,0.88
2023-02-28T20:53:24.681Z,0.84
2023-02-28T20:56:00.269Z,0.93
2023-02-28T20:58:34.550Z,0.82
2023-02-28T21:01:03.639Z,0.97
2023-02-28T21:03:31.596Z,0.97
2023-02-28T21:06:03.185Z,1.05
2023-02-28T21:08:34.698Z,0.85
2023-02-28T21:11:02.613Z,1.04
2023-02-28T21:13:30.669Z,1.01
2023-02-28T21:16:09.873Z,0.93
2023-02-28T21:18:38.925Z,0.68
2023-02-28T21:21:17.524Z,0.59
2023-02-28T21:23:46.920Z,0.50
2023-02-28T21:26:19.550Z,0.56
2023-02-28T21:28:51.023Z,0.43
2023-02-28T21:31:19.890Z,0.29
2023-02-28T21:33:47.925Z,0.42
2023-02-28T21:36:18.065Z,0.61
2023-02-28T21:38:46.090Z,0.22
2023-02-28T21:41:21.162Z,0.22
2023-02-28T21:43:49.154Z,0.33
2023-02-28T21:46:20.818Z,0.12
2023-02-28T21:48:49.267Z,0.23
2023-02-28T21:51:21.806Z,0.22
2023-02-28T21:53:49.937Z,0.30
2023-02-28T21:56:25.311Z,0.17
2023-02-28T21:59:00.700Z,0.24
2023-02-28T22:01:32.734Z,0.47
2023-02-28T22:04:01.237Z,0.41
2023-02-28T22:06:31.105Z,0.37
2023-02-28T22:09:02.171Z,0.28
2023-02-28T22:11:29.949Z,0.21
2023-02-28T22:13:59.303Z,0.28
2023-02-28T22:16:33.205Z,0.14
2023-02-28T22:19:08.004Z,0.00
2023-02-28T22:21:36.120Z,0.26
2023-02-28T22:24:04.366Z,-0.03
2023-02-28T22:26:33.133Z,0.21
2023-02-28T22:29:02.781Z,0.28
2023-02-28T22:31:31.775Z,0.51
2023-02-28T22:34:02.344Z,0.11
2023-02-28T22:36:30.597Z,0.04
2023-02-28T22:38:58.438Z,0.17
2023-02-28T22:41:26.785Z,0.05
2023-02-28T22:43:56.546Z,0.15
2023-02-28T22:46:24.652Z,0.13
2023-02-28T22:48:52.768Z,0.26
2023-02-28T22:51:22.333Z,0.11
2023-02-28T22:53:50.367Z,0.02
2023-02-28T22:56:20.555Z,-0.10
2023-02-28T22:58:52.541Z,-0.14
2023-02-28T23:01:20.935Z,0.06
2023-02-28T23:03:48.964Z,-0.14
2023-02-28T23:06:30.471Z,-0.13
2023-02-28T23:09:03.788Z,-0.25
2023-02-28T23:11:33.516Z,-0.09
2023-02-28T23:14:01.247Z,-0.24
2023-02-28T23:16:37.629Z,-0.29
2023-02-28T23:19:08.571Z,-0.08
2023-02-28T23:21:36.094Z,-0.30
2023-02-28T23:24:04.994Z,-0.27
2023-02-28T23:26:33.086Z,-0.24
2023-02-28T23:29:01.374Z,-0.39
2023-02-28T23:31:30.537Z,-0.36
2023-02-28T23:34:02.679Z,-0.30
2023-02-28T23:36:32.458Z,-0.25
2023-02-28T23:39:00.416Z,-0.24
2023-02-28T23:41:28.148Z,0.04
2023-02-28T23:43:56.319Z,0.08
2023-02-28T23:46:23.985Z,-0.03
2023-02-28T23:48:51.503Z,0.00
2023-02-28T23:51:20.651Z,-0.26
2023-02-28T23:53:49.713Z,-0.42
2023-02-28T23:56:19.300Z,-0.67
2023-02-28T23:58:48.390Z,-0.47
